Airfield :
LOGIN :

Register | Disclaimer

   EN    FR    IT 

 










Legend :    VFR   Marginal VFR   IFR   Intensive IFR   Very Intensive IFR
Visi :
Ceiling :
>= 8 km
>= 3000ft
5 to 8 km
1000 to 3000 ft
1500m to 5 km
500 to 1000 ft
800 to 1500m
200 to 500 ft
< 800m
< 200 ft
Symbols :   Thunderstorms  Fog  Heavy snow  Heavy precipitations  Wind > 20 kt
SIGMETs :     Misc.  Thunderstorms  Icing  Turbulence  Mountain Waves  Volcanic Ashes






- Airport Elevation : 1325 ft
- IATA code : EBU


LFMH - St-Etienne Boutheon

CURRENT METAR :
  • 291130Z AUTO 23003KT 170V300 CAVOK 11/M01 Q1014

EXPIRED METARs :
  • 291100Z AUTO VRB03KT CAVOK 10/M00 Q1015
  • 291030Z AUTO VRB02KT CAVOK 09/M01 Q1015
  • 291000Z AUTO 15003KT 090V210 CAVOK 08/00 Q1015
  • 290930Z AUTO VRB03KT CAVOK 07/00 Q1016
  • 290900Z AUTO VRB03KT CAVOK 07/01 Q1016
  • 290830Z AUTO 17003KT 140V220 CAVOK 05/01 Q1017
  • 290800Z AUTO 16004KT CAVOK 04/01 Q1017
  • 290730Z AUTO 16003KT 9000 NSC 02/01 Q1017
  • 290700Z AUTO VRB02KT 5000 BR FEW016 01/00 Q1017
  • 290630Z AUTO 16003KT 4700 BR BKN016 00/M01 Q1017

Expired Forecast.
ATIS : +33 4 77 36 17 51



MET'MAP, your aeronautical weather chart ! - Copyright ORBIFLY December 2007 - Disclaimer

ORBIFLY MET'MAP TEAM :

Programming & Development : Alexandra Zaïnal
Original concept : Baudouin d'Aumeries
Technical & hardware support : Manuel Goepfert
Assistance : Marc-Olivier Méhu




SOURCES & CREDITS :

   NOAA